Time;durP1;ratioP1;P1;durP2;ratioP2;P2;SDS_P1;SDS_P2;PMS_P1;PMS_P2;Temp;Humidity;BMP_temperature;BMP_pressure;BME280_temperature;BME280_humidity;BME280_pressure;Samples;Min_cycle;Max_cycle;Signal;HPM_P1;HPM_P2
2024/03/18 00:00:01;;;;;;;13.75;6.63;;;9.90;99.90;;;;;;5075254;28;20035;-59
2024/03/18 00:02:31;;;;;;;10.50;5.90;;;9.90;99.90;;;;;;5075351;28;20024;-57
2024/03/18 00:04:56;;;;;;;14.40;6.63;;;9.90;99.90;;;;;;5075416;28;20024;-59
2024/03/18 00:07:25;;;;;;;12.70;6.60;;;10.00;99.90;;;;;;5075287;28;20085;-59
2024/03/18 00:09:51;;;;;;;10.70;5.55;;;10.00;99.90;;;;;;5075192;28;20066;-58
2024/03/18 00:12:16;;;;;;;11.82;6.40;;;9.90;99.90;;;;;;5075367;28;20425;-59
2024/03/18 00:14:43;;;;;;;15.27;6.43;;;10.00;99.90;;;;;;5075038;28;20489;-58
2024/03/18 00:17:10;;;;;;;14.82;6.60;;;10.00;99.90;;;;;;5075326;28;20100;-61
2024/03/18 00:19:36;;;;;;;12.07;7.28;;;10.00;99.90;;;;;;5074830;28;20063;-58
2024/03/18 00:22:01;;;;;;;11.05;5.90;;;10.00;99.90;;;;;;5074490;28;20586;-59
2024/03/18 00:24:27;;;;;;;15.05;6.03;;;10.00;99.90;;;;;;5075142;28;20028;-57
2024/03/18 00:26:52;;;;;;;10.52;5.50;;;10.00;99.90;;;;;;5074718;28;20036;-58
2024/03/18 00:29:18;;;;;;;12.85;5.80;;;10.10;99.90;;;;;;5074527;28;20082;-59
2024/03/18 00:31:44;;;;;;;7.53;4.55;;;10.10;99.90;;;;;;5074709;28;20029;-57
2024/03/18 00:34:10;;;;;;;8.70;4.75;;;10.10;99.90;;;;;;5074487;28;20109;-58
2024/03/18 00:36:35;;;;;;;8.20;4.68;;;10.10;99.90;;;;;;5074617;28;20056;-58
2024/03/18 00:39:01;;;;;;;7.13;4.15;;;10.10;99.90;;;;;;5074555;28;20040;-59
2024/03/18 00:41:45;;;;;;;11.15;4.88;;;10.10;99.90;;;;;;5074716;28;20709;-59
2024/03/18 00:44:15;;;;;;;10.43;3.75;;;10.10;99.90;;;;;;5074482;28;20032;-57
2024/03/18 00:46:44;;;;;;;9.35;3.28;;;10.00;99.90;;;;;;5073073;28;20387;-58
2024/03/18 00:49:11;;;;;;;16.08;5.45;;;9.90;99.90;;;;;;5074705;28;20020;-58
2024/03/18 00:51:38;;;;;;;12.23;4.55;;;9.80;99.90;;;;;;5074657;28;20028;-57
2024/03/18 00:54:04;;;;;;;13.32;5.35;;;9.80;99.90;;;;;;5074688;28;20109;-58
2024/03/18 00:56:30;;;;;;;9.60;5.20;;;9.70;99.90;;;;;;5074490;28;20020;-59
2024/03/18 00:58:56;;;;;;;9.75;4.75;;;9.70;99.90;;;;;;5074299;28;20031;-59
2024/03/18 01:01:22;;;;;;;8.75;4.85;;;9.70;99.90;;;;;;5074383;28;20040;-59
2024/03/18 01:03:48;;;;;;;12.32;6.22;;;9.70;99.90;;;;;;5074317;28;20461;-57
2024/03/18 01:06:14;;;;;;;12.23;6.47;;;9.70;99.90;;;;;;5074370;28;20029;-58
2024/03/18 01:08:40;;;;;;;13.38;6.57;;;9.70;99.90;;;;;;5073127;28;20428;-57
2024/03/18 01:11:06;;;;;;;13.38;6.57;;;9.60;99.90;;;;;;5074286;28;20078;-58
2024/03/18 01:13:33;;;;;;;12.00;7.28;;;9.60;99.90;;;;;;5073929;28;20037;-58
2024/03/18 01:15:59;;;;;;;17.05;8.13;;;9.50;99.90;;;;;;5074179;28;20025;-58
2024/03/18 01:18:25;;;;;;;13.10;7.35;;;9.50;99.90;;;;;;5074122;28;20535;-61
2024/03/18 01:20:51;;;;;;;14.27;7.43;;;9.50;99.90;;;;;;5073808;28;20040;-59
2024/03/18 01:23:17;;;;;;;12.27;7.75;;;9.50;99.90;;;;;;5073843;28;20038;-58
2024/03/18 01:25:42;;;;;;;14.27;8.27;;;9.50;99.90;;;;;;5073602;28;20028;-57
2024/03/18 01:28:08;;;;;;;15.48;7.80;;;9.40;99.90;;;;;;5073625;28;20038;-56
2024/03/18 01:30:34;;;;;;;16.00;8.52;;;9.40;99.90;;;;;;5072265;28;20070;-57
2024/03/18 01:33:00;;;;;;;17.65;8.90;;;9.40;99.90;;;;;;5073351;28;20032;-56
2024/03/18 01:35:25;;;;;;;18.83;9.07;;;9.40;99.90;;;;;;5074226;28;20035;-56
2024/03/18 01:37:51;;;;;;;17.42;8.55;;;9.40;99.90;;;;;;5073543;28;20036;-56
2024/03/18 01:40:17;;;;;;;17.67;8.75;;;9.30;99.90;;;;;;5088776;22;20442;-85
2024/03/18 01:42:44;;;;;;;22.90;10.60;;;9.40;99.90;;;;;;5057512;28;20020;-86
2024/03/18 01:45:10;;;;;;;18.55;9.80;;;9.40;99.90;;;;;;5058196;28;20037;-86
2024/03/18 01:47:36;;;;;;;21.55;10.20;;;9.30;99.90;;;;;;5058243;28;20100;-85
2024/03/18 01:50:02;;;;;;;19.75;9.52;;;9.30;99.90;;;;;;5055756;28;20020;-85
2024/03/18 01:52:29;;;;;;;21.20;10.63;;;9.30;99.90;;;;;;5066019;28;20024;-85
2024/03/18 01:54:57;;;;;;;19.15;9.10;;;9.30;99.90;;;;;;5050357;28;20026;-84
2024/03/18 01:57:24;;;;;;;20.38;10.15;;;9.30;99.90;;;;;;5046933;28;20402;-85
2024/03/18 01:59:50;;;;;;;20.42;10.13;;;9.30;99.90;;;;;;5052097;28;20037;-84
2024/03/18 02:02:15;;;;;;;20.42;10.00;;;9.30;99.90;;;;;;5052803;28;20510;-85
2024/03/18 02:04:41;;;;;;;16.90;9.43;;;9.30;99.90;;;;;;5026025;28;20124;-85
2024/03/18 02:07:26;;;;;;;23.50;9.70;;;9.30;99.90;;;;;;5050845;28;20013;-84
2024/03/18 02:09:52;;;;;;;22.60;10.60;;;9.30;99.90;;;;;;5045794;28;20040;-84
2024/03/18 02:12:18;;;;;;;17.42;9.77;;;9.30;99.90;;;;;;5052920;28;20017;-84
2024/03/18 02:14:49;;;;;;;20.73;10.70;;;9.30;99.90;;;;;;5049420;28;20789;-83
2024/03/18 02:17:15;;;;;;;18.70;10.02;;;9.30;99.90;;;;;;5054674;28;20052;-83
2024/03/18 02:19:40;;;;;;;18.95;9.80;;;9.30;99.90;;;;;;5054853;28;20025;-84
2024/03/18 02:22:06;;;;;;;20.63;10.45;;;9.30;99.90;;;;;;5052502;28;20029;-84
2024/03/18 02:24:32;;;;;;;21.63;11.23;;;9.30;99.90;;;;;;5052618;28;20557;-83
2024/03/18 02:27:12;;;;;;;23.35;10.48;;;9.30;99.90;;;;;;5040332;28;20022;-84
2024/03/18 02:29:37;;;;;;;19.33;10.35;;;9.30;99.90;;;;;;5051366;28;20045;-83
2024/03/18 02:32:03;;;;;;;19.13;11.25;;;9.30;99.90;;;;;;5051362;28;20025;-84
2024/03/18 02:34:30;;;;;;;21.58;10.82;;;9.30;99.90;;;;;;5053840;28;20417;-84
2024/03/18 02:36:56;;;;;;;20.98;9.85;;;9.30;99.90;;;;;;5046049;28;20029;-83
2024/03/18 02:39:22;;;;;;;17.92;10.02;;;9.30;99.90;;;;;;5049236;28;20041;-84
2024/03/18 02:41:48;;;;;;;25.75;11.13;;;9.30;99.90;;;;;;5045829;28;20021;-84
2024/03/18 02:44:14;;;;;;;19.80;9.77;;;9.30;99.90;;;;;;5050120;28;20017;-84
2024/03/18 02:46:39;;;;;;;21.38;10.80;;;9.30;99.90;;;;;;5054715;28;20504;-85
2024/03/18 02:49:05;;;;;;;19.65;10.48;;;9.30;99.90;;;;;;5047713;28;20471;-84
2024/03/18 02:51:31;;;;;;;21.20;10.05;;;9.30;99.90;;;;;;5043843;28;20030;-84
2024/03/18 02:53:56;;;;;;;20.58;10.23;;;9.30;99.90;;;;;;5046313;28;20075;-84
2024/03/18 02:56:22;;;;;;;21.95;10.75;;;9.30;99.90;;;;;;5052237;28;20529;-83
2024/03/18 02:58:47;;;;;;;23.38;10.60;;;9.30;99.90;;;;;;5056042;28;20021;-85
2024/03/18 03:01:13;;;;;;;19.50;9.75;;;9.30;99.90;;;;;;5054672;28;20090;-84
2024/03/18 03:03:39;;;;;;;23.02;10.32;;;9.30;99.90;;;;;;5055214;28;20037;-84
2024/03/18 03:06:06;;;;;;;21.58;10.65;;;9.30;99.90;;;;;;5053099;28;20021;-83
2024/03/18 03:08:31;;;;;;;24.08;10.85;;;9.30;99.90;;;;;;5051306;28;20090;-84
2024/03/18 03:10:57;;;;;;;21.45;10.38;;;9.30;99.90;;;;;;5054416;28;20590;-84
2024/03/18 03:13:23;;;;;;;21.70;9.90;;;9.30;99.90;;;;;;5055147;28;20051;-85
2024/03/18 03:15:48;;;;;;;17.17;8.65;;;9.20;99.90;;;;;;5054981;28;20036;-84
2024/03/18 03:18:14;;;;;;;20.65;9.57;;;9.30;99.90;;;;;;5054672;28;20063;-85
2024/03/18 03:20:40;;;;;;;24.70;10.43;;;9.30;99.90;;;;;;5043013;28;20398;-84
2024/03/18 03:23:06;;;;;;;19.75;9.52;;;9.30;99.90;;;;;;5048041;28;20041;-85
2024/03/18 03:25:32;;;;;;;23.67;9.10;;;9.30;99.90;;;;;;5054567;28;20482;-84
2024/03/18 03:27:58;;;;;;;19.88;9.32;;;9.40;99.90;;;;;;5053616;28;20025;-84
2024/03/18 03:30:24;;;;;;;22.60;9.95;;;9.30;99.90;;;;;;5052572;28;20025;-84
2024/03/18 03:32:50;;;;;;;20.60;9.70;;;9.30;99.90;;;;;;5055663;28;20025;-84
2024/03/18 03:35:16;;;;;;;18.77;9.93;;;9.30;99.90;;;;;;5054911;28;20478;-84
2024/03/18 03:37:42;;;;;;;16.77;8.18;;;9.30;99.90;;;;;;5052507;28;20120;-84
2024/03/18 03:40:10;;;;;;;17.88;9.27;;;9.30;99.90;;;;;;5045802;28;20060;-83
2024/03/18 03:42:37;;;;;;;19.77;8.85;;;9.30;99.90;;;;;;5041133;28;20399;-84
2024/03/18 03:45:02;;;;;;;19.02;9.13;;;9.30;99.90;;;;;;5036376;28;20026;-83
2024/03/18 03:47:28;;;;;;;19.13;9.75;;;9.40;99.90;;;;;;5052167;28;20041;-84
2024/03/18 03:49:53;;;;;;;20.65;9.77;;;9.30;99.90;;;;;;5047401;28;20021;-84
2024/03/18 03:52:19;;;;;;;19.85;9.93;;;9.30;99.90;;;;;;5053764;28;20025;-84
2024/03/18 03:54:45;;;;;;;18.13;9.48;;;9.30;99.90;;;;;;5055044;28;20445;-84
2024/03/18 03:57:11;;;;;;;19.90;9.55;;;9.30;99.90;;;;;;5054339;28;20029;-84
2024/03/18 03:59:36;;;;;;;15.68;9.48;;;9.20;99.90;;;;;;5043187;28;20021;-84
2024/03/18 04:02:04;;;;;;;17.13;8.90;;;9.30;99.90;;;;;;5052285;28;20021;-84
2024/03/18 04:04:29;;;;;;;14.80;8.00;;;9.30;99.90;;;;;;5053269;28;20117;-83
2024/03/18 04:06:55;;;;;;;18.15;9.40;;;9.30;99.90;;;;;;5050987;28;20475;-84
2024/03/18 04:09:21;;;;;;;19.40;8.50;;;9.30;99.90;;;;;;5052126;28;20013;-83
2024/03/18 04:11:48;;;;;;;16.63;8.63;;;9.30;99.90;;;;;;5040729;28;20509;-83
2024/03/18 04:14:14;;;;;;;17.23;8.90;;;9.30;99.90;;;;;;5052062;28;20027;-84
2024/03/18 04:16:40;;;;;;;17.92;8.95;;;9.30;99.90;;;;;;5047094;28;20115;-84
2024/03/18 04:19:07;;;;;;;18.98;8.60;;;9.30;99.90;;;;;;5049514;28;20494;-84
2024/03/18 04:21:32;;;;;;;15.30;8.40;;;9.30;99.90;;;;;;5048816;28;20020;-84
2024/03/18 04:23:59;;;;;;;17.33;7.90;;;9.30;99.90;;;;;;5046874;28;20075;-84
2024/03/18 04:26:24;;;;;;;19.10;9.23;;;9.30;99.90;;;;;;5041852;28;20029;-83
2024/03/18 04:28:51;;;;;;;14.48;8.32;;;9.30;99.90;;;;;;5046196;28;20491;-84
2024/03/18 04:31:17;;;;;;;15.35;8.25;;;9.30;99.90;;;;;;5052020;28;20025;-84
2024/03/18 04:33:43;;;;;;;16.38;8.10;;;9.30;99.90;;;;;;5051163;28;20389;-83
2024/03/18 04:36:09;;;;;;;13.10;7.95;;;9.30;99.90;;;;;;5045839;28;20115;-84
2024/03/18 04:38:34;;;;;;;15.05;7.95;;;9.30;99.90;;;;;;5043098;28;20028;-84
2024/03/18 04:41:01;;;;;;;14.02;7.85;;;9.30;99.90;;;;;;5043735;28;20061;-83
2024/03/18 04:43:26;;;;;;;14.25;7.60;;;9.30;99.90;;;;;;5049865;28;20511;-83
2024/03/18 04:45:52;;;;;;;17.27;8.50;;;9.30;99.90;;;;;;5052999;28;20025;-84
2024/03/18 04:48:18;;;;;;;15.70;8.30;;;9.30;99.90;;;;;;5050760;28;20052;-84
2024/03/18 04:50:43;;;;;;;16.60;8.38;;;9.30;99.90;;;;;;5039637;28;20480;-84
2024/03/18 04:53:09;;;;;;;15.15;8.02;;;9.30;99.90;;;;;;5054708;28;20597;-84
2024/03/18 04:55:35;;;;;;;16.45;8.60;;;9.30;99.90;;;;;;5058183;28;20542;-84
2024/03/18 04:58:00;;;;;;;18.00;8.60;;;9.30;99.90;;;;;;5052465;28;20432;-83
2024/03/18 05:00:28;;;;;;;16.23;8.35;;;9.30;99.90;;;;;;5056168;28;20363;-84
2024/03/18 05:02:53;;;;;;;17.85;9.35;;;9.30;99.90;;;;;;5057431;28;20033;-84
2024/03/18 05:05:19;;;;;;;20.70;9.50;;;9.30;99.90;;;;;;5056720;28;20035;-84
2024/03/18 05:07:45;;;;;;;15.70;8.25;;;9.30;99.90;;;;;;5050046;28;20040;-84
2024/03/18 05:10:12;;;;;;;19.98;9.05;;;9.30;99.90;;;;;;5051427;28;20018;-83
2024/03/18 05:12:41;;;;;;;14.43;8.35;;;9.30;99.90;;;;;;5053061;28;20041;-84
2024/03/18 05:15:07;;;;;;;15.95;8.73;;;9.30;99.90;;;;;;5040665;28;20475;-84
2024/03/18 05:17:33;;;;;;;17.77;8.60;;;9.30;99.90;;;;;;5048119;28;20112;-83
2024/03/18 05:19:59;;;;;;;18.65;9.60;;;9.30;99.90;;;;;;5056005;28;20056;-84
2024/03/18 05:22:25;;;;;;;20.35;9.00;;;9.30;99.90;;;;;;5061764;22;20017;-59
2024/03/18 05:24:50;;;;;;;14.93;7.80;;;9.30;99.90;;;;;;5055389;28;20072;-60
2024/03/18 05:27:18;;;;;;;19.27;8.98;;;9.30;99.90;;;;;;5058235;28;20414;-59
2024/03/18 05:29:44;;;;;;;16.58;7.70;;;9.30;99.90;;;;;;5061432;28;20031;-59
2024/03/18 05:32:15;;;;;;;16.42;8.25;;;9.30;99.90;;;;;;5055559;28;20028;-58
2024/03/18 05:34:42;;;;;;;17.77;9.07;;;9.30;99.90;;;;;;5050700;28;20025;-59
2024/03/18 05:37:09;;;;;;;14.48;8.98;;;9.20;99.90;;;;;;5053292;28;20048;-59
2024/03/18 05:39:37;;;;;;;18.92;8.60;;;9.20;99.90;;;;;;5046722;28;20040;-59
2024/03/18 05:42:03;;;;;;;16.45;8.40;;;9.30;99.90;;;;;;5048081;28;20088;-59
2024/03/18 05:44:28;;;;;;;21.92;9.13;;;9.20;99.90;;;;;;5052861;28;20062;-60
2024/03/18 05:46:54;;;;;;;16.65;9.23;;;9.20;99.90;;;;;;5055989;28;20437;-59
2024/03/18 05:49:19;;;;;;;14.82;7.47;;;9.20;99.90;;;;;;5053345;28;20048;-60
2024/03/18 05:51:48;;;;;;;14.57;8.38;;;9.20;99.90;;;;;;5052156;28;20469;-57
2024/03/18 05:54:15;;;;;;;16.38;8.85;;;9.20;99.90;;;;;;5050514;28;20025;-59
2024/03/18 05:56:40;;;;;;;20.80;8.38;;;9.30;99.90;;;;;;5050938;28;20029;-60
2024/03/18 05:59:06;;;;;;;14.52;8.00;;;9.30;99.90;;;;;;5052112;28;20162;-60
2024/03/18 06:01:32;;;;;;;17.27;8.73;;;9.30;99.90;;;;;;5051041;28;20040;-58
2024/03/18 06:03:57;;;;;;;17.95;8.88;;;9.30;99.90;;;;;;5051330;28;20427;-57
2024/03/18 06:06:23;;;;;;;14.40;8.50;;;9.30;99.90;;;;;;5055801;28;20116;-59
2024/03/18 06:08:49;;;;;;;15.63;8.13;;;9.30;99.90;;;;;;5055101;28;20129;-60
2024/03/18 06:11:15;;;;;;;19.10;8.70;;;9.30;99.90;;;;;;5049943;28;20104;-60
2024/03/18 06:13:40;;;;;;;16.55;8.43;;;9.30;99.90;;;;;;5052284;28;20025;-60
2024/03/18 06:16:06;;;;;;;14.20;8.15;;;9.40;99.90;;;;;;5054778;28;20025;-59
2024/03/18 06:18:34;;;;;;;16.08;8.82;;;9.40;99.90;;;;;;5054677;28;20743;-60
2024/03/18 06:21:00;;;;;;;14.75;7.82;;;9.40;99.90;;;;;;5051158;28;20408;-60
2024/03/18 06:23:27;;;;;;;17.13;8.27;;;9.40;99.90;;;;;;5054885;28;20111;-60
2024/03/18 06:25:59;;;;;;;15.68;8.98;;;9.40;99.90;;;;;;5055550;28;20051;-60
2024/03/18 06:28:30;;;;;;;14.97;8.27;;;9.50;99.90;;;;;;5052809;28;20094;-59
2024/03/18 06:30:57;;;;;;;18.10;9.00;;;9.50;99.90;;;;;;5048375;28;20025;-59
2024/03/18 06:33:23;;;;;;;17.83;8.50;;;9.50;99.90;;;;;;5051234;28;20025;-58
2024/03/18 06:35:51;;;;;;;13.88;7.78;;;9.60;99.90;;;;;;5055858;28;20027;-60
2024/03/18 06:38:16;;;;;;;16.73;8.80;;;9.60;99.90;;;;;;5060588;28;20103;-60
2024/03/18 06:40:42;;;;;;;15.52;8.50;;;9.70;99.90;;;;;;5049773;28;20475;-60
2024/03/18 06:43:08;;;;;;;18.58;8.77;;;9.80;99.90;;;;;;5046633;28;20087;-59
2024/03/18 06:45:37;;;;;;;24.55;7.70;;;9.80;99.90;;;;;;5053702;28;20041;-60
2024/03/18 06:48:06;;;;;;;14.82;8.25;;;9.80;99.90;;;;;;5050552;28;20087;-59
2024/03/18 06:50:35;;;;;;;15.20;8.68;;;9.80;99.90;;;;;;5058537;28;20016;-60
2024/03/18 06:53:00;;;;;;;16.63;8.38;;;9.90;99.90;;;;;;5056392;28;20078;-59
2024/03/18 06:55:28;;;;;;;14.90;8.02;;;9.90;99.90;;;;;;5052962;28;20036;-57
2024/03/18 06:57:54;;;;;;;13.30;7.45;;;10.00;99.90;;;;;;5059534;28;20051;-60
2024/03/18 07:00:23;;;;;;;15.85;7.20;;;10.00;99.90;;;;;;5050162;28;20467;-60
2024/03/18 07:02:49;;;;;;;13.43;7.80;;;10.00;99.90;;;;;;5047914;28;20033;-60
2024/03/18 07:05:20;;;;;;;17.73;8.43;;;10.00;99.90;;;;;;5057324;28;20502;-60
2024/03/18 07:07:46;;;;;;;14.55;8.40;;;10.00;99.90;;;;;;5055718;28;20028;-60
2024/03/18 07:10:12;;;;;;;13.10;7.45;;;10.10;99.90;;;;;;5052433;28;20017;-59
2024/03/18 07:12:41;;;;;;;15.50;7.65;;;10.20;99.90;;;;;;5050638;28;20092;-59
2024/03/18 07:15:11;;;;;;;14.75;7.18;;;10.20;99.90;;;;;;5057557;28;20417;-60
2024/03/18 07:17:38;;;;;;;14.25;7.53;;;10.30;99.90;;;;;;5056741;28;20039;-59
2024/03/18 07:20:06;;;;;;;12.50;6.93;;;10.50;99.90;;;;;;5055286;28;20029;-59
2024/03/18 07:22:35;;;;;;;13.90;6.90;;;10.40;99.90;;;;;;5055870;28;20108;-60
2024/03/18 07:25:01;;;;;;;16.02;7.22;;;10.60;99.90;;;;;;5050361;28;20039;-60
2024/03/18 07:27:27;;;;;;;12.52;6.93;;;10.60;99.90;;;;;;5054616;28;20025;-57
2024/03/18 07:29:57;;;;;;;12.23;6.93;;;10.80;99.90;;;;;;5049330;28;20029;-60
2024/03/18 07:32:25;;;;;;;10.85;6.80;;;11.10;99.90;;;;;;5057208;28;20033;-60
2024/03/18 07:34:52;;;;;;;18.13;8.35;;;11.30;99.90;;;;;;5052252;28;20025;-60
2024/03/18 07:37:21;;;;;;;19.65;7.53;;;11.50;99.90;;;;;;5047900;28;20056;-59
2024/03/18 07:39:47;;;;;;;15.10;7.30;;;11.60;99.90;;;;;;5055471;28;20017;-59
2024/03/18 07:42:15;;;;;;;12.23;6.88;;;11.90;99.90;;;;;;5102021;22;20041;-60
2024/03/18 07:44:41;;;;;;;12.02;7.18;;;12.20;99.90;;;;;;5029139;28;20491;-58
2024/03/18 07:47:08;;;;;;;11.45;6.28;;;12.10;99.90;;;;;;5030111;28;20025;-57
2024/03/18 07:49:36;;;;;;;9.23;6.30;;;12.00;99.90;;;;;;5030654;28;20032;-56
2024/03/18 07:52:01;;;;;;;11.00;6.68;;;12.00;99.90;;;;;;5030326;28;20045;-56
2024/03/18 07:54:31;;;;;;;13.05;6.28;;;12.00;99.90;;;;;;5032702;28;20553;-56
2024/03/18 07:56:56;;;;;;;9.60;5.55;;;12.20;99.90;;;;;;5029321;28;20030;-56
2024/03/18 07:59:22;;;;;;;11.85;6.28;;;12.20;99.90;;;;;;5029984;28;20376;-58
2024/03/18 08:01:48;;;;;;;9.13;5.55;;;12.10;99.90;;;;;;5030085;28;20025;-57
2024/03/18 08:04:14;;;;;;;11.75;6.65;;;12.20;99.90;;;;;;5030328;28;21180;-58
2024/03/18 08:06:46;;;;;;;12.90;6.65;;;12.10;99.90;;;;;;5030380;28;20109;-57
2024/03/18 08:09:11;;;;;;;10.60;6.18;;;12.30;99.90;;;;;;5030296;28;20037;-57
2024/03/18 08:11:37;;;;;;;11.32;5.50;;;12.50;99.90;;;;;;5028786;28;20059;-55
2024/03/18 08:14:02;;;;;;;10.40;5.97;;;12.70;99.90;;;;;;5029808;28;20037;-56
2024/03/18 08:16:28;;;;;;;10.20;6.28;;;12.70;99.90;;;;;;5029674;28;20103;-59
2024/03/18 08:18:53;;;;;;;9.25;5.45;;;12.60;99.90;;;;;;5033777;28;20047;-57
2024/03/18 08:21:19;;;;;;;10.65;6.22;;;12.50;99.90;;;;;;5033759;28;20029;-59
2024/03/18 08:23:44;;;;;;;9.48;5.65;;;12.50;99.90;;;;;;5033734;28;20489;-56
2024/03/18 08:26:10;;;;;;;9.45;5.90;;;12.50;99.90;;;;;;5033192;28;20491;-61
2024/03/18 08:28:35;;;;;;;13.57;6.03;;;12.40;99.90;;;;;;5036716;28;20041;-56
2024/03/18 08:31:01;;;;;;;10.05;6.35;;;12.50;99.90;;;;;;5031944;28;20021;-54
2024/03/18 08:33:26;;;;;;;11.13;5.72;;;12.50;99.90;;;;;;5033149;28;20567;-59
2024/03/18 08:35:52;;;;;;;11.45;6.45;;;12.60;99.90;;;;;;5032476;28;20033;-58
2024/03/18 08:38:18;;;;;;;11.85;5.65;;;12.70;99.90;;;;;;5032586;28;20369;-59
2024/03/18 08:40:43;;;;;;;11.20;6.57;;;12.60;99.90;;;;;;5033713;28;20048;-57
2024/03/18 08:43:10;;;;;;;10.38;5.82;;;12.60;99.90;;;;;;5032966;28;20040;-59
2024/03/18 08:45:36;;;;;;;8.27;5.47;;;12.50;99.90;;;;;;5036109;28;20026;-57
2024/03/18 08:48:01;;;;;;;15.63;6.53;;;12.50;99.90;;;;;;5032690;28;20035;-57
2024/03/18 08:50:27;;;;;;;12.85;6.15;;;12.50;99.90;;;;;;5032304;28;20025;-58
2024/03/18 08:52:52;;;;;;;10.45;6.47;;;12.50;99.90;;;;;;5032243;28;20056;-58
2024/03/18 08:55:18;;;;;;;12.05;6.25;;;12.40;99.90;;;;;;5031782;28;20502;-59
2024/03/18 08:57:44;;;;;;;11.68;6.70;;;12.50;99.90;;;;;;5032718;28;20395;-58
2024/03/18 09:00:10;;;;;;;11.82;6.97;;;12.50;99.90;;;;;;5030640;28;20321;-56
2024/03/18 09:02:37;;;;;;;10.20;6.28;;;12.60;99.90;;;;;;5034914;28;20025;-59
2024/03/18 09:05:03;;;;;;;8.68;5.97;;;12.80;99.90;;;;;;5030737;28;20108;-58
2024/03/18 09:07:29;;;;;;;11.25;6.15;;;12.80;99.90;;;;;;5031094;28;20112;-56
2024/03/18 09:09:55;;;;;;;10.45;6.00;;;13.00;99.90;;;;;;5031430;28;20088;-58
2024/03/18 09:12:21;;;;;;;8.95;5.55;;;13.40;99.90;;;;;;5030192;28;20112;-56
2024/03/18 09:14:47;;;;;;;10.30;6.40;;;13.60;99.90;;;;;;5031912;28;20021;-56
2024/03/18 09:17:12;;;;;;;10.45;6.25;;;13.70;99.90;;;;;;5031897;28;20022;-57
2024/03/18 09:19:41;;;;;;;11.60;6.53;;;13.80;99.90;;;;;;5034032;28;20702;-58
2024/03/18 09:22:10;;;;;;;7.93;5.30;;;14.10;99.90;;;;;;5031298;28;20569;-57
2024/03/18 09:24:35;;;;;;;7.43;5.40;;;14.40;99.90;;;;;;5031524;28;20025;-57
2024/03/18 09:27:04;;;;;;;11.05;5.85;;;14.50;99.90;;;;;;5030488;28;20029;-57
2024/03/18 09:29:29;;;;;;;8.20;5.15;;;14.50;99.90;;;;;;5028464;28;20029;-56
2024/03/18 09:31:55;;;;;;;8.57;6.03;;;14.50;99.90;;;;;;5032260;28;20032;-58
2024/03/18 09:34:20;;;;;;;7.90;5.35;;;14.40;99.90;;;;;;5030506;28;20029;-57
2024/03/18 09:36:46;;;;;;;7.90;5.28;;;14.40;99.90;;;;;;5031724;28;20376;-59
2024/03/18 09:39:11;;;;;;;11.55;5.78;;;14.40;99.90;;;;;;5030797;28;20033;-58
2024/03/18 09:41:39;;;;;;;9.25;5.32;;;14.10;99.90;;;;;;5030888;28;20507;-59
2024/03/18 09:44:12;;;;;;;6.75;5.03;;;14.10;99.90;;;;;;5030206;28;20030;-58
2024/03/18 09:46:38;;;;;;;8.10;5.38;;;14.00;99.90;;;;;;5031110;28;20399;-58
2024/03/18 09:49:13;;;;;;;9.98;5.97;;;14.00;99.90;;;;;;5030811;28;20048;-59
2024/03/18 09:51:41;;;;;;;8.57;4.78;;;13.90;99.90;;;;;;5031065;28;20036;-56
2024/03/18 09:54:13;;;;;;;11.63;5.47;;;13.90;99.90;;;;;;5029843;28;20113;-59
2024/03/18 09:56:39;;;;;;;9.20;5.97;;;13.90;99.90;;;;;;5031449;28;20108;-58
2024/03/18 09:59:04;;;;;;;8.60;5.53;;;13.80;99.90;;;;;;5030484;28;20215;-60
2024/03/18 10:01:32;;;;;;;11.43;6.85;;;14.20;99.90;;;;;;5030764;28;20029;-56
2024/03/18 10:03:58;;;;;;;8.27;5.60;;;14.50;99.90;;;;;;5029019;28;20029;-59
2024/03/18 10:06:25;;;;;;;11.82;6.38;;;14.40;99.90;;;;;;5032259;28;20048;-58
2024/03/18 10:08:50;;;;;;;8.05;5.13;;;14.40;99.90;;;;;;5030865;28;20048;-56
2024/03/18 10:11:16;;;;;;;8.75;5.65;;;14.40;99.90;;;;;;5031516;28;20037;-56
2024/03/18 10:13:42;;;;;;;9.30;6.53;;;14.30;99.90;;;;;;5030560;28;20057;-59
2024/03/18 10:16:10;;;;;;;11.00;5.90;;;14.30;99.90;;;;;;5028574;28;20438;-56
2024/03/18 10:18:36;;;;;;;10.68;5.68;;;14.70;99.90;;;;;;5028993;28;20037;-56
2024/03/18 10:21:02;;;;;;;7.95;5.68;;;15.00;99.90;;;;;;5030237;28;20048;-58
2024/03/18 10:23:28;;;;;;;9.38;5.68;;;15.30;99.90;;;;;;5031597;28;20052;-60
2024/03/18 10:25:54;;;;;;;7.30;5.57;;;15.40;99.90;;;;;;5029806;28;20487;-60
2024/03/18 10:28:20;;;;;;;7.20;4.90;;;15.40;99.90;;;;;;5029933;28;20029;-57
2024/03/18 10:30:46;;;;;;;13.07;5.97;;;15.40;99.90;;;;;;5029733;28;20056;-59
2024/03/18 10:33:16;;;;;;;6.82;5.03;;;15.50;99.90;;;;;;5029692;28;20029;-59
2024/03/18 10:35:47;;;;;;;8.52;5.88;;;15.60;99.90;;;;;;5029672;28;20043;-58
2024/03/18 10:38:23;;;;;;;9.15;6.10;;;15.60;99.90;;;;;;5029461;28;20025;-57
2024/03/18 10:40:52;;;;;;;8.93;5.07;;;15.40;99.90;;;;;;5029462;28;20056;-59
2024/03/18 10:43:25;;;;;;;8.57;4.82;;;15.30;99.90;;;;;;5028634;28;20116;-59
2024/03/18 10:45:53;;;;;;;8.48;5.43;;;15.20;99.90;;;;;;5023661;28;20025;-59
2024/03/18 10:48:18;;;;;;;11.55;5.30;;;15.40;99.90;;;;;;5029254;28;20034;-57
2024/03/18 10:50:45;;;;;;;7.40;4.65;;;15.60;99.90;;;;;;5029632;28;20668;-57
2024/03/18 10:53:20;;;;;;;7.82;4.93;;;16.10;99.90;;;;;;5029413;28;20021;-59
2024/03/18 10:55:48;;;;;;;6.20;3.50;;;16.50;99.90;;;;;;5026970;28;20033;-58
2024/03/18 10:58:16;;;;;;;8.13;3.90;;;16.70;99.90;;;;;;5028630;28;20509;-60
2024/03/18 11:00:42;;;;;;;6.88;3.72;;;16.70;99.90;;;;;;5030374;28;20041;-57
2024/03/18 11:03:13;;;;;;;8.50;3.08;;;16.60;99.90;;;;;;5029555;28;20448;-57
2024/03/18 11:05:52;;;;;;;8.23;3.35;;;16.60;99.90;;;;;;5029531;28;20037;-59
2024/03/18 11:08:19;;;;;;;8.68;4.00;;;16.20;99.90;;;;;;5030310;28;20033;-58
2024/03/18 11:10:46;;;;;;;9.73;4.07;;;15.80;99.90;;;;;;5028515;28;20025;-58
2024/03/18 11:13:14;;;;;;;9.77;7.07;;;15.30;99.90;;;;;;5026336;28;20495;-58
2024/03/18 11:15:41;;;;;;;9.18;6.10;;;15.00;99.90;;;;;;5029981;28;20483;-58
2024/03/18 11:18:08;;;;;;;11.23;5.47;;;14.70;99.90;;;;;;5034237;28;20107;-56
2024/03/18 11:20:47;;;;;;;7.85;4.93;;;14.50;99.90;;;;;;5027711;28;20072;-63
2024/03/18 11:23:20;;;;;;;10.13;5.35;;;14.40;99.90;;;;;;5027052;28;20128;-59
2024/03/18 11:25:58;;;;;;;9.15;5.13;;;14.30;99.90;;;;;;5029502;28;20035;-57
2024/03/18 11:28:37;;;;;;;13.00;5.38;;;14.20;99.90;;;;;;5026183;28;20088;-58
2024/03/18 11:31:04;;;;;;;9.32;3.90;;;14.00;99.90;;;;;;5030376;28;20450;-59
2024/03/18 11:33:33;;;;;;;10.02;4.40;;;14.10;99.90;;;;;;5028831;28;20388;-58
2024/03/18 11:36:02;;;;;;;7.35;3.42;;;14.30;99.90;;;;;;5033821;28;20425;-57
2024/03/18 11:38:28;;;;;;;8.73;4.00;;;14.70;99.90;;;;;;5029358;28;20518;-57
2024/03/18 11:40:55;;;;;;;9.15;4.00;;;15.00;99.90;;;;;;5029455;28;20032;-59
2024/03/18 11:43:21;;;;;;;8.98;3.97;;;15.30;99.90;;;;;;5027987;28;20060;-58
2024/03/18 11:45:48;;;;;;;7.82;4.07;;;15.40;99.90;;;;;;5027706;28;20021;-58
2024/03/18 11:48:14;;;;;;;8.70;3.85;;;15.40;99.90;;;;;;5032118;28;20418;-57
2024/03/18 11:50:40;;;;;;;12.07;3.30;;;15.70;99.90;;;;;;5029422;28;20034;-58
2024/03/18 11:53:07;;;;;;;17.00;4.10;;;15.70;99.90;;;;;;5029488;28;20076;-58
2024/03/18 11:55:36;;;;;;;6.90;3.20;;;15.60;99.90;;;;;;5032907;28;20060;-60
2024/03/18 11:58:06;;;;;;;9.27;3.53;;;15.70;99.90;;;;;;5032697;28;20395;-59
2024/03/18 12:00:36;;;;;;;12.35;3.50;;;15.90;99.90;;;;;;5032317;28;20025;-58
2024/03/18 12:03:04;;;;;;;7.22;3.00;;;16.10;99.90;;;;;;5032017;28;20014;-56
2024/03/18 12:05:31;;;;;;;13.95;3.15;;;16.20;99.90;;;;;;5031147;28;20037;-59
2024/03/18 12:07:57;;;;;;;8.18;3.58;;;16.30;99.90;;;;;;5030373;28;20025;-57
2024/03/18 12:10:23;;;;;;;6.95;2.38;;;16.10;99.90;;;;;;5033986;28;20487;-58
2024/03/18 12:12:50;;;;;;;6.82;2.58;;;16.20;99.90;;;;;;5032592;28;20021;-59
2024/03/18 12:15:15;;;;;;;7.68;2.20;;;16.30;99.90;;;;;;5032558;28;20535;-57
2024/03/18 12:17:43;;;;;;;4.57;1.95;;;16.40;99.90;;;;;;5032993;28;20113;-60
2024/03/18 12:20:28;;;;;;;8.02;2.53;;;16.50;99.90;;;;;;5033477;28;20022;-59
2024/03/18 12:23:03;;;;;;;3.53;1.88;;;16.50;99.90;;;;;;5030503;28;20391;-57
2024/03/18 12:28:35;;;;;;;4.25;1.95;;;16.30;99.90;;;;;;5029749;28;20036;-58
2024/03/18 12:31:04;;;;;;;8.88;2.50;;;16.30;99.90;;;;;;5031523;28;20025;-57
2024/03/18 12:33:31;;;;;;;6.03;1.83;;;16.20;99.90;;;;;;5025170;28;20165;-57
2024/03/18 12:35:56;;;;;;;4.10;1.65;;;16.10;99.90;;;;;;5027911;28;20082;-58
2024/03/18 12:38:26;;;;;;;5.05;1.35;;;16.10;99.90;;;;;;5030978;28;20140;-59
2024/03/18 12:40:52;;;;;;;3.42;1.63;;;16.30;99.90;;;;;;5027483;28;20021;-58
2024/03/18 12:43:19;;;;;;;7.07;2.65;;;16.50;99.90;;;;;;5032048;28;20057;-58